Cap Andreas — D5EP5 — position and weather

sailwx.info

Track history (hours):
 
Tides and Currents Weather Stations Pressure Air Temp Water Temp Dewpoint Dewpoint Depression Visibility Wind Speed Wind Dir Waves Ship Positions

Cap Andreas

Last reported at 2018-Apr-10 22:43 UTC. Time now 2018-Apr-23 13:40 UTC.
Position S 23°06' W 042°37'.
Warning: this ship's position is 12 days out of date.

Length 271 m; draft 11.8 m.

Type: Ship. MMSI: 636016126.

Date/timePositionNaut miles runAvg speedWind from/ knotsBaromVisibWave heightAir tempDewpointWater temp
2018-Apr-10 22:43S 23°06' W 042°37'818.4
2018-Apr-10 22:18S 23°06' W 042°45'518.6
2018-Apr-10 22:00S 23°05' W 042°51'918.4
2018-Apr-10 21:30S 23°03' W 043°01'816.2
2018-Apr-10 21:01S 22°59' W 043°08'611.2
2018-Apr-10 20:31S 22°54' W 043°09'3 5.9
2018-Apr-10 20:00S 22°52' W 043°12'0 0.1
2018-Apr-10 19:29S 22°52' W 043°12'0 0.0
2018-Apr-10 18:59S 22°52' W 043°12'0 0.0
2018-Apr-10 18:29S 22°52' W 043°12'0 0.0
2018-Apr-10 17:59S 22°52' W 043°12'0 0.0
2018-Apr-10 17:29S 22°52' W 043°12'0 0.0
2018-Apr-10 16:59S 22°52' W 043°12'0 0.0
2018-Apr-10 16:29S 22°52' W 043°12'0 0.0
2018-Apr-10 15:59S 22°52' W 043°12'0 0.0
2018-Apr-10 15:29S 22°52' W 043°12'0 0.0
2018-Apr-10 14:59S 22°52' W 043°12'0 0.0
2018-Apr-10 14:30S 22°52' W 043°12'1 1.8
2018-Apr-10 14:00S 22°53' W 043°11'4 8.6
2018-Apr-10 13:30S 22°56' W 043°08'4 8.0
2018-Apr-10 13:00S 23°00' W 043°09'4 8.4
2018-Apr-10 12:30S 23°04' W 043°10'4 8.3
2018-Apr-10 12:00S 23°07' W 043°13'4 8.6
2018-Apr-10 11:30S 23°09' W 043°17'4 8.8
2018-Apr-10 11:00S 23°11' W 043°22'4 8.8
2018-Apr-10 10:30S 23°13' W 043°26'5 9.0
2018-Apr-10 09:57S 23°16' W 043°31'4 9.2
2018-Apr-10 09:30S 23°18' W 043°35'5 9.4
2018-Apr-10 08:59S 23°20' W 043°39'15711.7
2018-Apr-09 19:35S 24°07' W 046°23'115.5
2018-Apr-09 19:30S 24°06' W 046°23'613.0
2018-Apr-09 19:00S 23°60' W 046°20'3 5.8
2018-Apr-09 18:30S 23°58' W 046°18'0 0.3
2018-Apr-09 18:00S 23°58' W 046°18'0 0.0
2018-Apr-09 17:24S 23°58' W 046°18'0 0.0
2018-Apr-09 16:54S 23°58' W 046°18'0 0.0
2018-Apr-09 16:30S 23°58' W 046°18'0 0.0
2018-Apr-09 16:00S 23°58' W 046°18'0 0.0
2018-Apr-09 15:30S 23°58' W 046°18'0 0.0
2018-Apr-09 15:00S 23°58' W 046°18'0 0.0
2018-Apr-09 14:30S 23°58' W 046°18'0 0.0
2018-Apr-09 14:00S 23°58' W 046°18'0 0.0
2018-Apr-09 13:30S 23°58' W 046°18'0 0.0
2018-Apr-09 13:00S 23°58' W 046°18'0 0.0
2018-Apr-09 12:24S 23°58' W 046°18'0 0.0
2018-Apr-09 12:00S 23°58' W 046°18'0 0.0
2018-Apr-09 11:30S 23°58' W 046°18'0 0.0
2018-Apr-09 11:00S 23°58' W 046°18'0 0.0
2018-Apr-09 10:30S 23°58' W 046°18'0 0.0
2018-Apr-09 10:00S 23°58' W 046°18'0 0.0
2018-Apr-09 09:24S 23°58' W 046°18'0 0.0
2018-Apr-09 09:00S 23°58' W 046°18'0 0.0
2018-Apr-09 08:30S 23°58' W 046°18'0 0.0
2018-Apr-09 08:00S 23°58' W 046°18'0 0.0
2018-Apr-09 07:30S 23°58' W 046°18'0 0.0
2018-Apr-09 07:00S 23°58' W 046°18'0 0.0
2018-Apr-09 06:24S 23°58' W 046°18'0 0.0
2018-Apr-09 06:00S 23°58' W 046°18'0 0.0
2018-Apr-09 05:24S 23°58' W 046°18'0 0.0
2018-Apr-09 04:54S 23°58' W 046°18'0 0.0
2018-Apr-09 04:24S 23°58' W 046°18'0 0.0
2018-Apr-09 04:00S 23°58' W 046°18'0 0.0
2018-Apr-09 03:30S 23°58' W 046°18'0 0.0
2018-Apr-09 03:00S 23°58' W 046°18'0 0.0
2018-Apr-09 02:30S 23°58' W 046°18'0 0.0
2018-Apr-09 02:00S 23°58' W 046°18'0 0.0
2018-Apr-09 01:30S 23°58' W 046°18'0 0.0
2018-Apr-09 01:00S 23°58' W 046°18'0 0.0
2018-Apr-09 00:30S 23°58' W 046°18'0 0.0
2018-Apr-09 00:00S 23°58' W 046°18'0 0.0
2018-Apr-08 23:30S 23°58' W 046°18'0 0.0
2018-Apr-08 23:00S 23°58' W 046°18'0 0.0
2018-Apr-08 22:30S 23°58' W 046°18'0 0.0
2018-Apr-08 22:00S 23°58' W 046°18'0 0.0
2018-Apr-08 21:30S 23°58' W 046°18'0 0.0
2018-Apr-08 21:00S 23°58' W 046°18'0 0.0
2018-Apr-08 20:30S 23°58' W 046°18'0 0.0
2018-Apr-08 19:57S 23°58' W 046°18'0 0.0
2018-Apr-08 19:30S 23°58' W 046°18'0 0.0
2018-Apr-08 19:00S 23°58' W 046°18'0 0.0
2018-Apr-08 18:30S 23°58' W 046°18'0 0.0
2018-Apr-08 18:00S 23°58' W 046°18'0 0.0
2018-Apr-08 17:30S 23°58' W 046°18'0 0.0
2018-Apr-08 17:00S 23°58' W 046°18'0 0.0
2018-Apr-08 16:30S 23°58' W 046°18'0 0.0
2018-Apr-08 16:00S 23°58' W 046°18'0 0.0
2018-Apr-08 15:30S 23°58' W 046°18'0 0.0
2018-Apr-08 15:00S 23°58' W 046°18'0 0.0
2018-Apr-08 14:30S 23°58' W 046°18'0 0.0
2018-Apr-08 14:00S 23°58' W 046°18'0 0.0
2018-Apr-08 13:30S 23°58' W 046°18'0 0.0
2018-Apr-08 13:00S 23°58' W 046°18'0 0.0
2018-Apr-08 12:30S 23°58' W 046°18'0 0.0
2018-Apr-08 12:00S 23°58' W 046°18'0 0.0
2018-Apr-08 11:30S 23°58' W 046°18'0 0.0
2018-Apr-08 11:00S 23°58' W 046°18'0 0.0
2018-Apr-08 10:30S 23°58' W 046°18'0 0.2
2018-Apr-08 10:01S 23°58' W 046°18'2 4.9
2018-Apr-08 09:30S 23°60' W 046°20'5 9.1
2018-Apr-08 08:59S 24°04' W 046°22'  
2018-Apr-04 17:14S 24°02' W 046°21'2 9.1
2018-Apr-04 16:59S 23°60' W 046°20'3 4.9
2018-Apr-04 16:27S 23°58' W 046°18'0 0.2
2018-Apr-04 15:57S 23°58' W 046°18'0 0.0
2018-Apr-04 15:27S 23°58' W 046°18'0 0.0
2018-Apr-04 14:57S 23°58' W 046°18'0 0.0
2018-Apr-04 14:30S 23°58' W 046°18'0 0.0
2018-Apr-04 13:57S 23°58' W 046°18'0 0.0
2018-Apr-04 13:30S 23°58' W 046°18'0 0.0
2018-Apr-04 12:57S 23°58' W 046°18'0 0.0
2018-Apr-04 12:27S 23°58' W 046°18'0 0.0
2018-Apr-04 11:54S 23°58' W 046°18'0 0.0
2018-Apr-04 11:27S 23°58' W 046°18'0 0.0
2018-Apr-04 10:57S 23°58' W 046°18'0 0.0
2018-Apr-04 10:27S 23°58' W 046°18'0 0.0
2018-Apr-04 09:57S 23°58' W 046°18'0 0.0
2018-Apr-04 09:27S 23°58' W 046°18'0 0.0
2018-Apr-04 08:57S 23°58' W 046°18'0 0.0
2018-Apr-04 08:27S 23°58' W 046°18'0 0.0
2018-Apr-04 07:57S 23°58' W 046°18'0 0.0
2018-Apr-04 07:27S 23°58' W 046°18'0 0.0
2018-Apr-04 06:57S 23°58' W 046°18'0 0.0
2018-Apr-04 06:30S 23°58' W 046°18'0 0.0
2018-Apr-04 05:57S 23°58' W 046°18'0 0.0
2018-Apr-04 05:27S 23°58' W 046°18'0 0.0
2018-Apr-04 04:57S 23°58' W 046°18'0 0.0
2018-Apr-04 04:27S 23°58' W 046°18'0 0.0
2018-Apr-04 03:57S 23°58' W 046°18'0 0.0
2018-Apr-04 03:27S 23°58' W 046°18'0 0.0
2018-Apr-04 02:57S 23°58' W 046°18'0 0.0
2018-Apr-04 02:27S 23°58' W 046°18'0 0.0
2018-Apr-04 01:57S 23°58' W 046°18'0 0.0
2018-Apr-04 01:27S 23°58' W 046°18'0 0.0
2018-Apr-04 00:57S 23°58' W 046°18'0 0.0
2018-Apr-04 00:27S 23°58' W 046°18'0 0.0
2018-Apr-03 23:57S 23°58' W 046°18'0 0.0
2018-Apr-03 23:30S 23°58' W 046°18'0 0.0
2018-Apr-03 23:00S 23°58' W 046°18'0 0.0
2018-Apr-03 22:27S 23°58' W 046°18'0 0.0
2018-Apr-03 21:57S 23°58' W 046°18'0 0.0
2018-Apr-03 21:27S 23°58' W 046°18'0 0.0
2018-Apr-03 20:57S 23°58' W 046°18'0 0.0
2018-Apr-03 20:30S 23°58' W 046°18'0 0.0
2018-Apr-03 19:57S 23°58' W 046°18'0 0.0
2018-Apr-03 19:27S 23°58' W 046°18'0 0.0
2018-Apr-03 18:51S 23°58' W 046°18'0 0.0
2018-Apr-03 18:27S 23°58' W 046°18'0 0.0
2018-Apr-03 17:57S 23°58' W 046°18'0 0.0
2018-Apr-03 17:21S 23°58' W 046°18'0 0.0
2018-Apr-03 17:00S 23°58' W 046°18'0 0.0
2018-Apr-03 16:27S 23°58' W 046°18'0 0.0
2018-Apr-03 15:57S 23°58' W 046°18'0 0.0
2018-Apr-03 15:27S 23°58' W 046°18'0 0.0
2018-Apr-03 14:45S 23°58' W 046°18'0 0.0
2018-Apr-03 14:27S 23°58' W 046°18'0 0.0
2018-Apr-03 13:51S 23°58' W 046°18'0 0.0
2018-Apr-03 13:27S 23°58' W 046°18'0 0.0
2018-Apr-03 12:54S 23°58' W 046°18'0 0.0
2018-Apr-03 12:27S 23°58' W 046°18'0 0.0
2018-Apr-03 11:33S 23°58' W 046°18'0 0.0
2018-Apr-03 11:27S 23°58' W 046°18'0 0.0
2018-Apr-03 10:45S 23°58' W 046°18'0 0.0
2018-Apr-03 10:30S 23°58' W 046°18'0 0.0
2018-Apr-03 10:00S 23°58' W 046°18'0 0.0
2018-Apr-03 09:27S 23°58' W 046°18'0 0.0
2018-Apr-03 08:57S 23°58' W 046°18'0 0.0
2018-Apr-03 08:21S 23°58' W 046°18'0 0.0
2018-Apr-03 07:57S 23°58' W 046°18'0 0.0
2018-Apr-03 07:27S 23°58' W 046°18'0 0.0
2018-Apr-03 06:57S 23°58' W 046°18'0 0.0
2018-Apr-03 06:27S 23°58' W 046°18'0 0.0
2018-Apr-03 05:57S 23°58' W 046°18'0 0.0
2018-Apr-03 05:27S 23°58' W 046°18'0 0.0
2018-Apr-03 04:57S 23°58' W 046°18'0 0.0
2018-Apr-03 04:27S 23°58' W 046°18'0 0.0
2018-Apr-03 03:57S 23°58' W 046°18'0 0.0
2018-Apr-03 03:27S 23°58' W 046°18'0 0.0
2018-Apr-03 02:57S 23°58' W 046°18'0 0.0
2018-Apr-03 02:21S 23°58' W 046°18'0 0.0
2018-Apr-03 02:01S 23°58' W 046°18'0 0.0
2018-Apr-03 01:30S 23°58' W 046°18'1 2.9
2018-Apr-03 01:00S 23°59' W 046°18'4 7.6
2018-Apr-03 00:30S 24°02' W 046°21'3 6.9
2018-Apr-03 00:00S 24°05' W 046°22'138 3.5
2018-Apr-01 08:14S 23°43' W 043°53'619.7
2018-Apr-01 07:57S 23°41' W 043°47'1019.8
2018-Apr-01 07:27S 23°38' W 043°37'919.6
2018-Apr-01 06:59S 23°35' W 043°27'919.2
2018-Apr-01 06:30S 23°32' W 043°18'1019.4
2018-Apr-01 06:00S 23°29' W 043°07'1019.6
2018-Apr-01 05:29S 23°26' W 042°57'1019.9
2018-Apr-01 04:58S 23°22' W 042°47'1020.1
2018-Apr-01 04:29S 23°19' W 042°37'  
Track history (hours):
 
Tides and Currents Weather Stations Pressure Air Temp Water Temp Dewpoint Dewpoint Depression Visibility Wind Speed Wind Dir Waves Ship Positions

Cap Andreas

Last reported at 2018-Apr-10 22:43 UTC. Time now 2018-Apr-23 13:40 UTC.
Position S 23°06' W 042°37'.
Warning: this ship's position is 12 days out of date.

Length 271 m; draft 11.8 m.

Type: Ship. MMSI: 636016126.

Date/timePositionNaut miles runAvg speedWind from/ knotsBaromVisibWave heightAir tempDewpointWater temp
2018-Apr-10 22:43S 23°06' W 042°37'818.4
2018-Apr-10 22:18S 23°06' W 042°45'518.6
2018-Apr-10 22:00S 23°05' W 042°51'918.4
2018-Apr-10 21:30S 23°03' W 043°01'816.2
2018-Apr-10 21:01S 22°59' W 043°08'611.2
2018-Apr-10 20:31S 22°54' W 043°09'3 5.9
2018-Apr-10 20:00S 22°52' W 043°12'0 0.1
2018-Apr-10 19:29S 22°52' W 043°12'0 0.0
2018-Apr-10 18:59S 22°52' W 043°12'0 0.0
2018-Apr-10 18:29S 22°52' W 043°12'0 0.0
2018-Apr-10 17:59S 22°52' W 043°12'0 0.0
2018-Apr-10 17:29S 22°52' W 043°12'0 0.0
2018-Apr-10 16:59S 22°52' W 043°12'0 0.0
2018-Apr-10 16:29S 22°52' W 043°12'0 0.0
2018-Apr-10 15:59S 22°52' W 043°12'0 0.0
2018-Apr-10 15:29S 22°52' W 043°12'0 0.0
2018-Apr-10 14:59S 22°52' W 043°12'0 0.0
2018-Apr-10 14:30S 22°52' W 043°12'1 1.8
2018-Apr-10 14:00S 22°53' W 043°11'4 8.6
2018-Apr-10 13:30S 22°56' W 043°08'4 8.0
2018-Apr-10 13:00S 23°00' W 043°09'4 8.4
2018-Apr-10 12:30S 23°04' W 043°10'4 8.3
2018-Apr-10 12:00S 23°07' W 043°13'4 8.6
2018-Apr-10 11:30S 23°09' W 043°17'4 8.8
2018-Apr-10 11:00S 23°11' W 043°22'4 8.8
2018-Apr-10 10:30S 23°13' W 043°26'5 9.0
2018-Apr-10 09:57S 23°16' W 043°31'4 9.2
2018-Apr-10 09:30S 23°18' W 043°35'5 9.4
2018-Apr-10 08:59S 23°20' W 043°39'15711.7
2018-Apr-09 19:35S 24°07' W 046°23'115.5
2018-Apr-09 19:30S 24°06' W 046°23'613.0
2018-Apr-09 19:00S 23°60' W 046°20'3 5.8
2018-Apr-09 18:30S 23°58' W 046°18'0 0.3
2018-Apr-09 18:00S 23°58' W 046°18'0 0.0
2018-Apr-09 17:24S 23°58' W 046°18'0 0.0
2018-Apr-09 16:54S 23°58' W 046°18'0 0.0
2018-Apr-09 16:30S 23°58' W 046°18'0 0.0
2018-Apr-09 16:00S 23°58' W 046°18'0 0.0
2018-Apr-09 15:30S 23°58' W 046°18'0 0.0
2018-Apr-09 15:00S 23°58' W 046°18'0 0.0
2018-Apr-09 14:30S 23°58' W 046°18'0 0.0
2018-Apr-09 14:00S 23°58' W 046°18'0 0.0
2018-Apr-09 13:30S 23°58' W 046°18'0 0.0
2018-Apr-09 13:00S 23°58' W 046°18'0 0.0
2018-Apr-09 12:24S 23°58' W 046°18'0 0.0
2018-Apr-09 12:00S 23°58' W 046°18'0 0.0
2018-Apr-09 11:30S 23°58' W 046°18'0 0.0
2018-Apr-09 11:00S 23°58' W 046°18'0 0.0
2018-Apr-09 10:30S 23°58' W 046°18'0 0.0
2018-Apr-09 10:00S 23°58' W 046°18'0 0.0
2018-Apr-09 09:24S 23°58' W 046°18'0 0.0
2018-Apr-09 09:00S 23°58' W 046°18'0 0.0
2018-Apr-09 08:30S 23°58' W 046°18'0 0.0
2018-Apr-09 08:00S 23°58' W 046°18'0 0.0
2018-Apr-09 07:30S 23°58' W 046°18'0 0.0
2018-Apr-09 07:00S 23°58' W 046°18'0 0.0
2018-Apr-09 06:24S 23°58' W 046°18'0 0.0
2018-Apr-09 06:00S 23°58' W 046°18'0 0.0
2018-Apr-09 05:24S 23°58' W 046°18'0 0.0
2018-Apr-09 04:54S 23°58' W 046°18'0 0.0
2018-Apr-09 04:24S 23°58' W 046°18'0 0.0
2018-Apr-09 04:00S 23°58' W 046°18'0 0.0
2018-Apr-09 03:30S 23°58' W 046°18'0 0.0
2018-Apr-09 03:00S 23°58' W 046°18'0 0.0
2018-Apr-09 02:30S 23°58' W 046°18'0 0.0
2018-Apr-09 02:00S 23°58' W 046°18'0 0.0
2018-Apr-09 01:30S 23°58' W 046°18'0 0.0
2018-Apr-09 01:00S 23°58' W 046°18'0 0.0
2018-Apr-09 00:30S 23°58' W 046°18'0 0.0
2018-Apr-09 00:00S 23°58' W 046°18'0 0.0
2018-Apr-08 23:30S 23°58' W 046°18'0 0.0
2018-Apr-08 23:00S 23°58' W 046°18'0 0.0
2018-Apr-08 22:30S 23°58' W 046°18'0 0.0
2018-Apr-08 22:00S 23°58' W 046°18'0 0.0
2018-Apr-08 21:30S 23°58' W 046°18'0 0.0
2018-Apr-08 21:00S 23°58' W 046°18'0 0.0
2018-Apr-08 20:30S 23°58' W 046°18'0 0.0
2018-Apr-08 19:57S 23°58' W 046°18'0 0.0
2018-Apr-08 19:30S 23°58' W 046°18'0 0.0
2018-Apr-08 19:00S 23°58' W 046°18'0 0.0
2018-Apr-08 18:30S 23°58' W 046°18'0 0.0
2018-Apr-08 18:00S 23°58' W 046°18'0 0.0
2018-Apr-08 17:30S 23°58' W 046°18'0 0.0
2018-Apr-08 17:00S 23°58' W 046°18'0 0.0
2018-Apr-08 16:30S 23°58' W 046°18'0 0.0
2018-Apr-08 16:00S 23°58' W 046°18'0 0.0
2018-Apr-08 15:30S 23°58' W 046°18'0 0.0
2018-Apr-08 15:00S 23°58' W 046°18'0 0.0
2018-Apr-08 14:30S 23°58' W 046°18'0 0.0
2018-Apr-08 14:00S 23°58' W 046°18'0 0.0
2018-Apr-08 13:30S 23°58' W 046°18'0 0.0
2018-Apr-08 13:00S 23°58' W 046°18'0 0.0
2018-Apr-08 12:30S 23°58' W 046°18'0 0.0
2018-Apr-08 12:00S 23°58' W 046°18'0 0.0
2018-Apr-08 11:30S 23°58' W 046°18'0 0.0
2018-Apr-08 11:00S 23°58' W 046°18'0 0.0
2018-Apr-08 10:30S 23°58' W 046°18'0 0.2
2018-Apr-08 10:01S 23°58' W 046°18'2 4.9
2018-Apr-08 09:30S 23°60' W 046°20'5 9.1
2018-Apr-08 08:59S 24°04' W 046°22'  
2018-Apr-04 17:14S 24°02' W 046°21'2 9.1
2018-Apr-04 16:59S 23°60' W 046°20'3 4.9
2018-Apr-04 16:27S 23°58' W 046°18'0 0.2
2018-Apr-04 15:57S 23°58' W 046°18'0 0.0
2018-Apr-04 15:27S 23°58' W 046°18'0 0.0
2018-Apr-04 14:57S 23°58' W 046°18'0 0.0
2018-Apr-04 14:30S 23°58' W 046°18'0 0.0
2018-Apr-04 13:57S 23°58' W 046°18'0 0.0
2018-Apr-04 13:30S 23°58' W 046°18'0 0.0
2018-Apr-04 12:57S 23°58' W 046°18'0 0.0
2018-Apr-04 12:27S 23°58' W 046°18'0 0.0
2018-Apr-04 11:54S 23°58' W 046°18'0 0.0
2018-Apr-04 11:27S 23°58' W 046°18'0 0.0
2018-Apr-04 10:57S 23°58' W 046°18'0 0.0
2018-Apr-04 10:27S 23°58' W 046°18'0 0.0
2018-Apr-04 09:57S 23°58' W 046°18'0 0.0
2018-Apr-04 09:27S 23°58' W 046°18'0 0.0
2018-Apr-04 08:57S 23°58' W 046°18'0 0.0
2018-Apr-04 08:27S 23°58' W 046°18'0 0.0
2018-Apr-04 07:57S 23°58' W 046°18'0 0.0
2018-Apr-04 07:27S 23°58' W 046°18'0 0.0
2018-Apr-04 06:57S 23°58' W 046°18'0 0.0
2018-Apr-04 06:30S 23°58' W 046°18'0 0.0
2018-Apr-04 05:57S 23°58' W 046°18'0 0.0
2018-Apr-04 05:27S 23°58' W 046°18'0 0.0
2018-Apr-04 04:57S 23°58' W 046°18'0 0.0
2018-Apr-04 04:27S 23°58' W 046°18'0 0.0
2018-Apr-04 03:57S 23°58' W 046°18'0 0.0
2018-Apr-04 03:27S 23°58' W 046°18'0 0.0
2018-Apr-04 02:57S 23°58' W 046°18'0 0.0
2018-Apr-04 02:27S 23°58' W 046°18'0 0.0
2018-Apr-04 01:57S 23°58' W 046°18'0 0.0
2018-Apr-04 01:27S 23°58' W 046°18'0 0.0
2018-Apr-04 00:57S 23°58' W 046°18'0 0.0
2018-Apr-04 00:27S 23°58' W 046°18'0 0.0
2018-Apr-03 23:57S 23°58' W 046°18'0 0.0
2018-Apr-03 23:30S 23°58' W 046°18'0 0.0
2018-Apr-03 23:00S 23°58' W 046°18'0 0.0
2018-Apr-03 22:27S 23°58' W 046°18'0 0.0
2018-Apr-03 21:57S 23°58' W 046°18'0 0.0
2018-Apr-03 21:27S 23°58' W 046°18'0 0.0
2018-Apr-03 20:57S 23°58' W 046°18'0 0.0
2018-Apr-03 20:30S 23°58' W 046°18'0 0.0
2018-Apr-03 19:57S 23°58' W 046°18'0 0.0
2018-Apr-03 19:27S 23°58' W 046°18'0 0.0
2018-Apr-03 18:51S 23°58' W 046°18'0 0.0
2018-Apr-03 18:27S 23°58' W 046°18'0 0.0
2018-Apr-03 17:57S 23°58' W 046°18'0 0.0
2018-Apr-03 17:21S 23°58' W 046°18'0 0.0
2018-Apr-03 17:00S 23°58' W 046°18'0 0.0
2018-Apr-03 16:27S 23°58' W 046°18'0 0.0
2018-Apr-03 15:57S 23°58' W 046°18'0 0.0
2018-Apr-03 15:27S 23°58' W 046°18'0 0.0
2018-Apr-03 14:45S 23°58' W 046°18'0 0.0
2018-Apr-03 14:27S 23°58' W 046°18'0 0.0
2018-Apr-03 13:51S 23°58' W 046°18'0 0.0
2018-Apr-03 13:27S 23°58' W 046°18'0 0.0
2018-Apr-03 12:54S 23°58' W 046°18'0 0.0
2018-Apr-03 12:27S 23°58' W 046°18'0 0.0
2018-Apr-03 11:33S 23°58' W 046°18'0 0.0
2018-Apr-03 11:27S 23°58' W 046°18'0 0.0
2018-Apr-03 10:45S 23°58' W 046°18'0 0.0
2018-Apr-03 10:30S 23°58' W 046°18'0 0.0
2018-Apr-03 10:00S 23°58' W 046°18'0 0.0
2018-Apr-03 09:27S 23°58' W 046°18'0 0.0
2018-Apr-03 08:57S 23°58' W 046°18'0 0.0
2018-Apr-03 08:21S 23°58' W 046°18'0 0.0
2018-Apr-03 07:57S 23°58' W 046°18'0 0.0
2018-Apr-03 07:27S 23°58' W 046°18'0 0.0
2018-Apr-03 06:57S 23°58' W 046°18'0 0.0
2018-Apr-03 06:27S 23°58' W 046°18'0 0.0
2018-Apr-03 05:57S 23°58' W 046°18'0 0.0
2018-Apr-03 05:27S 23°58' W 046°18'0 0.0
2018-Apr-03 04:57S 23°58' W 046°18'0 0.0
2018-Apr-03 04:27S 23°58' W 046°18'0 0.0
2018-Apr-03 03:57S 23°58' W 046°18'0 0.0
2018-Apr-03 03:27S 23°58' W 046°18'0 0.0
2018-Apr-03 02:57S 23°58' W 046°18'0 0.0
2018-Apr-03 02:21S 23°58' W 046°18'0 0.0
2018-Apr-03 02:01S 23°58' W 046°18'0 0.0
2018-Apr-03 01:30S 23°58' W 046°18'1 2.9
2018-Apr-03 01:00S 23°59' W 046°18'4 7.6
2018-Apr-03 00:30S 24°02' W 046°21'3 6.9
2018-Apr-03 00:00S 24°05' W 046°22'138 3.5
2018-Apr-01 08:14S 23°43' W 043°53'619.7
2018-Apr-01 07:57S 23°41' W 043°47'1019.8
2018-Apr-01 07:27S 23°38' W 043°37'919.6
2018-Apr-01 06:59S 23°35' W 043°27'919.2
2018-Apr-01 06:30S 23°32' W 043°18'1019.4
2018-Apr-01 06:00S 23°29' W 043°07'1019.6
2018-Apr-01 05:29S 23°26' W 042°57'1019.9
2018-Apr-01 04:58S 23°22' W 042°47'1020.1
2018-Apr-01 04:29S 23°19' W 042°37'  

Dump ship's entire track history